Etusivu
METAR-TAF:

METAR-TAF

Lentoasemat :

Puerto Carreño, Kolumbia

Leveyspiiri: 06-10N, Pituuspiiri: 067-30W, korkeus merenpinnasta: 55 m

Tämänhetkinen sää

Tämä raportti tehtiin 8 tuntia ja 25 minuuttia sitten, kello 02.00 UTC
tyyntä
Lämpötila 25°C
Kosteus 94%
Ilmanpaine 1013 hPa
Näkyvyys 10 km tai enemmän
Hajonneita pilviä 1500 ft:n korkeudessa
heikkoa sadetta

METAR: SKPC 170200Z 00000KT 9999 -RA BKN015 25/24 A2992

Aika: 05:25 (10:25 UTC)


TAF: puuttuu

Säähavainnot ja -ennusteet yli 4000 lentoasemalta (METAR- ja TAF-raportit).

Käytössä olevat sääasemat on merkitty karttaan keltaisilla ja punaisilla pisteillä.

Aseta hiiri pisteen päälle nähdäksesi sääaseman nimen.

Klikkaa sitten nähdäksesi säähavainnot ja -ennusteet.

Kartan vaihtaminen: klikkaa mustalla rastilla varustettuja vihreitä pisteitä, niin voit zoomata sisään; viivalla varustettua vihreää pistettä, niin voit zoomata ulos tai vihreitä nuolia, niin pääset viereisille kartoille.


METAR-TAF: